sensor_id;sensor_type;location;lat;lon;timestamp;temperature;humidity
18091;DHT22;9172;49.948;9.208;2023-10-31T01:24:40;11.60;99.90
18091;DHT22;9172;49.948;9.208;2023-10-31T01:41:43;11.40;99.90
18091;DHT22;9172;49.948;9.208;2023-10-31T01:44:38;11.40;99.90
18091;DHT22;9172;49.948;9.208;2023-10-31T01:47:38;11.40;99.90
18091;DHT22;9172;49.948;9.208;2023-10-31T01:50:20;11.50;99.90
18091;DHT22;9172;49.948;9.208;2023-10-31T01:53:04;11.40;99.90
18091;DHT22;9172;49.948;9.208;2023-10-31T02:17:53;11.20;99.90
18091;DHT22;9172;49.948;9.208;2023-10-31T02:20:22;11.10;99.90
18091;DHT22;9172;49.948;9.208;2023-10-31T02:23:10;11.00;99.90
18091;DHT22;9172;49.948;9.208;2023-10-31T02:48:20;11.10;99.90
18091;DHT22;9172;49.948;9.208;2023-10-31T02:53:54;11.00;99.90
18091;DHT22;9172;49.948;9.208;2023-10-31T02:56:35;10.90;99.90
18091;DHT22;9172;49.948;9.208;2023-10-31T03:02:03;10.90;99.90
18091;DHT22;9172;49.948;9.208;2023-10-31T03:04:39;10.90;99.90
18091;DHT22;9172;49.948;9.208;2023-10-31T03:07:12;10.90;99.90
18091;DHT22;9172;49.948;9.208;2023-10-31T03:09:49;10.90;99.90
18091;DHT22;9172;49.948;9.208;2023-10-31T03:12:20;10.90;99.90
18091;DHT22;9172;49.948;9.208;2023-10-31T03:18:03;10.90;99.90
18091;DHT22;9172;49.948;9.208;2023-10-31T03:20:54;10.90;99.90
18091;DHT22;9172;49.948;9.208;2023-10-31T03:27:06;10.80;99.90
18091;DHT22;9172;49.948;9.208;2023-10-31T03:33:05;10.70;99.90
18091;DHT22;9172;49.948;9.208;2023-10-31T04:07:17;10.90;99.90
18091;DHT22;9172;49.948;9.208;2023-10-31T04:09:53;10.80;99.90
18091;DHT22;9172;49.948;9.208;2023-10-31T04:12:22;10.90;99.90
18091;DHT22;9172;49.948;9.208;2023-10-31T04:14:56;10.90;99.90
18091;DHT22;9172;49.948;9.208;2023-10-31T04:17:36;10.90;99.90
18091;DHT22;9172;49.948;9.208;2023-10-31T04:20:12;10.90;99.90
18091;DHT22;9172;49.948;9.208;2023-10-31T04:22:44;10.90;99.90
18091;DHT22;9172;49.948;9.208;2023-10-31T04:25:25;11.00;99.90
18091;DHT22;9172;49.948;9.208;2023-10-31T04:46:20;10.90;99.90
18091;DHT22;9172;49.948;9.208;2023-10-31T04:48:58;10.90;99.90
18091;DHT22;9172;49.948;9.208;2023-10-31T04:51:33;10.80;99.90
18091;DHT22;9172;49.948;9.208;2023-10-31T04:54:13;10.80;99.90
18091;DHT22;9172;49.948;9.208;2023-10-31T04:56:51;10.80;99.90
18091;DHT22;9172;49.948;9.208;2023-10-31T05:02:48;10.70;99.90
18091;DHT22;9172;49.948;9.208;2023-10-31T05:05:24;10.80;99.90
18091;DHT22;9172;49.948;9.208;2023-10-31T05:07:57;10.80;99.90
18091;DHT22;9172;49.948;9.208;2023-10-31T05:13:04;10.70;99.90
18091;DHT22;9172;49.948;9.208;2023-10-31T05:15:37;10.70;99.90
18091;DHT22;9172;49.948;9.208;2023-10-31T05:18:09;10.60;99.90
18091;DHT22;9172;49.948;9.208;2023-10-31T05:23:29;10.70;99.90
18091;DHT22;9172;49.948;9.208;2023-10-31T05:26:01;10.70;99.90
18091;DHT22;9172;49.948;9.208;2023-10-31T05:31:17;10.70;99.90
18091;DHT22;9172;49.948;9.208;2023-10-31T05:33:47;10.60;99.90
18091;DHT22;9172;49.948;9.208;2023-10-31T05:36:23;10.60;99.90
18091;DHT22;9172;49.948;9.208;2023-10-31T05:38:52;10.60;99.90
18091;DHT22;9172;49.948;9.208;2023-10-31T05:41:20;10.60;99.90
18091;DHT22;9172;49.948;9.208;2023-10-31T05:43:49;10.60;99.90
18091;DHT22;9172;49.948;9.208;2023-10-31T05:46:18;10.70;99.90
18091;DHT22;9172;49.948;9.208;2023-10-31T05:48:47;10.70;99.90
18091;DHT22;9172;49.948;9.208;2023-10-31T05:51:17;10.70;99.90
18091;DHT22;9172;49.948;9.208;2023-10-31T05:56:27;10.70;99.90
18091;DHT22;9172;49.948;9.208;2023-10-31T05:58:56;10.70;99.90
18091;DHT22;9172;49.948;9.208;2023-10-31T06:01:25;10.60;99.90
18091;DHT22;9172;49.948;9.208;2023-10-31T06:03:53;10.70;99.90
18091;DHT22;9172;49.948;9.208;2023-10-31T06:06:22;10.60;99.90
18091;DHT22;9172;49.948;9.208;2023-10-31T06:08:50;10.60;99.90
18091;DHT22;9172;49.948;9.208;2023-10-31T06:11:19;10.60;99.90
18091;DHT22;9172;49.948;9.208;2023-10-31T06:13:47;10.60;99.90
18091;DHT22;9172;49.948;9.208;2023-10-31T06:16:16;10.60;99.90
18091;DHT22;9172;49.948;9.208;2023-10-31T06:18:44;10.60;99.90
18091;DHT22;9172;49.948;9.208;2023-10-31T06:21:13;10.50;99.90
18091;DHT22;9172;49.948;9.208;2023-10-31T06:23:42;10.60;99.90
18091;DHT22;9172;49.948;9.208;2023-10-31T06:26:12;10.60;99.90
18091;DHT22;9172;49.948;9.208;2023-10-31T06:28:40;10.60;99.90
18091;DHT22;9172;49.948;9.208;2023-10-31T06:31:09;10.70;99.90
18091;DHT22;9172;49.948;9.208;2023-10-31T06:33:38;10.60;99.90
18091;DHT22;9172;49.948;9.208;2023-10-31T06:36:08;10.70;99.90
18091;DHT22;9172;49.948;9.208;2023-10-31T06:38:37;10.70;99.90
18091;DHT22;9172;49.948;9.208;2023-10-31T06:41:05;10.60;99.90
18091;DHT22;9172;49.948;9.208;2023-10-31T06:43:34;10.60;99.90
18091;DHT22;9172;49.948;9.208;2023-10-31T06:46:03;10.60;99.90
18091;DHT22;9172;49.948;9.208;2023-10-31T06:48:32;10.60;99.90
18091;DHT22;9172;49.948;9.208;2023-10-31T06:51:01;10.60;99.90
18091;DHT22;9172;49.948;9.208;2023-10-31T06:53:29;10.60;99.90
18091;DHT22;9172;49.948;9.208;2023-10-31T06:55:58;10.60;99.90
18091;DHT22;9172;49.948;9.208;2023-10-31T06:58:27;10.60;99.90
18091;DHT22;9172;49.948;9.208;2023-10-31T07:00:55;10.60;99.90
18091;DHT22;9172;49.948;9.208;2023-10-31T07:03:25;10.60;99.90
18091;DHT22;9172;49.948;9.208;2023-10-31T07:05:54;10.50;99.90
18091;DHT22;9172;49.948;9.208;2023-10-31T07:08:23;10.50;99.90
18091;DHT22;9172;49.948;9.208;2023-10-31T07:10:52;10.60;99.90
18091;DHT22;9172;49.948;9.208;2023-10-31T07:13:20;10.60;99.90
18091;DHT22;9172;49.948;9.208;2023-10-31T07:15:49;10.70;99.90
18091;DHT22;9172;49.948;9.208;2023-10-31T07:18:18;10.60;99.90
18091;DHT22;9172;49.948;9.208;2023-10-31T07:20:46;10.60;99.90
18091;DHT22;9172;49.948;9.208;2023-10-31T07:23:15;10.60;99.90
18091;DHT22;9172;49.948;9.208;2023-10-31T07:25:43;10.60;99.90
18091;DHT22;9172;49.948;9.208;2023-10-31T07:28:12;10.60;99.90
18091;DHT22;9172;49.948;9.208;2023-10-31T07:30:41;10.60;99.90
18091;DHT22;9172;49.948;9.208;2023-10-31T07:33:09;10.60;99.90
18091;DHT22;9172;49.948;9.208;2023-10-31T07:35:38;10.60;99.90
18091;DHT22;9172;49.948;9.208;2023-10-31T07:38:06;10.60;99.90
18091;DHT22;9172;49.948;9.208;2023-10-31T07:40:35;10.60;99.90
18091;DHT22;9172;49.948;9.208;2023-10-31T07:43:04;10.50;99.90
18091;DHT22;9172;49.948;9.208;2023-10-31T07:45:32;10.60;99.90
18091;DHT22;9172;49.948;9.208;2023-10-31T07:48:01;10.60;99.90
18091;DHT22;9172;49.948;9.208;2023-10-31T07:50:30;10.60;99.90
18091;DHT22;9172;49.948;9.208;2023-10-31T07:52:58;10.60;99.90
18091;DHT22;9172;49.948;9.208;2023-10-31T07:55:27;10.60;99.90
18091;DHT22;9172;49.948;9.208;2023-10-31T07:57:55;10.70;99.90
18091;DHT22;9172;49.948;9.208;2023-10-31T08:00:24;10.60;99.90
18091;DHT22;9172;49.948;9.208;2023-10-31T08:02:53;10.70;99.90
18091;DHT22;9172;49.948;9.208;2023-10-31T08:05:21;10.60;99.90
18091;DHT22;9172;49.948;9.208;2023-10-31T08:07:50;10.60;99.90
18091;DHT22;9172;49.948;9.208;2023-10-31T08:10:18;10.60;99.90
18091;DHT22;9172;49.948;9.208;2023-10-31T08:12:47;10.50;99.90
18091;DHT22;9172;49.948;9.208;2023-10-31T08:15:15;10.50;99.90
18091;DHT22;9172;49.948;9.208;2023-10-31T08:17:44;10.60;99.90
18091;DHT22;9172;49.948;9.208;2023-10-31T08:20:13;10.60;99.90
18091;DHT22;9172;49.948;9.208;2023-10-31T08:22:42;10.60;99.90
18091;DHT22;9172;49.948;9.208;2023-10-31T08:25:10;10.60;99.90
18091;DHT22;9172;49.948;9.208;2023-10-31T08:27:39;10.60;99.90
18091;DHT22;9172;49.948;9.208;2023-10-31T08:30:10;10.60;99.90
18091;DHT22;9172;49.948;9.208;2023-10-31T08:32:39;10.60;99.90
18091;DHT22;9172;49.948;9.208;2023-10-31T08:35:08;10.60;99.90
18091;DHT22;9172;49.948;9.208;2023-10-31T08:37:37;10.70;99.90
18091;DHT22;9172;49.948;9.208;2023-10-31T08:40:08;10.70;99.90
18091;DHT22;9172;49.948;9.208;2023-10-31T08:42:36;10.70;99.90
18091;DHT22;9172;49.948;9.208;2023-10-31T08:45:07;10.70;99.90
18091;DHT22;9172;49.948;9.208;2023-10-31T08:47:36;10.70;99.90
18091;DHT22;9172;49.948;9.208;2023-10-31T08:50:07;10.70;99.90
18091;DHT22;9172;49.948;9.208;2023-10-31T08:52:36;10.80;99.90
18091;DHT22;9172;49.948;9.208;2023-10-31T08:55:06;10.80;99.90
18091;DHT22;9172;49.948;9.208;2023-10-31T08:57:35;10.80;99.90
18091;DHT22;9172;49.948;9.208;2023-10-31T09:00:05;10.80;99.90
18091;DHT22;9172;49.948;9.208;2023-10-31T09:02:33;10.80;99.90
18091;DHT22;9172;49.948;9.208;2023-10-31T09:05:02;10.80;99.90
18091;DHT22;9172;49.948;9.208;2023-10-31T09:07:31;10.90;99.90
18091;DHT22;9172;49.948;9.208;2023-10-31T09:09:59;10.90;99.90
18091;DHT22;9172;49.948;9.208;2023-10-31T09:12:28;11.00;99.90
18091;DHT22;9172;49.948;9.208;2023-10-31T09:14:56;11.00;99.90
18091;DHT22;9172;49.948;9.208;2023-10-31T09:17:25;11.00;99.90
18091;DHT22;9172;49.948;9.208;2023-10-31T09:19:54;11.00;99.90
18091;DHT22;9172;49.948;9.208;2023-10-31T09:22:22;11.10;99.90
18091;DHT22;9172;49.948;9.208;2023-10-31T09:24:52;11.10;99.90
18091;DHT22;9172;49.948;9.208;2023-10-31T09:27:21;11.10;99.90
18091;DHT22;9172;49.948;9.208;2023-10-31T09:29:49;11.10;99.90
18091;DHT22;9172;49.948;9.208;2023-10-31T09:32:19;11.10;99.90
18091;DHT22;9172;49.948;9.208;2023-10-31T09:34:47;11.20;99.90
18091;DHT22;9172;49.948;9.208;2023-10-31T09:37:16;11.20;99.90
18091;DHT22;9172;49.948;9.208;2023-10-31T09:39:45;11.30;99.90
18091;DHT22;9172;49.948;9.208;2023-10-31T09:42:14;11.30;99.90
18091;DHT22;9172;49.948;9.208;2023-10-31T09:44:43;11.30;99.90
18091;DHT22;9172;49.948;9.208;2023-10-31T09:47:13;11.30;99.90
18091;DHT22;9172;49.948;9.208;2023-10-31T09:49:43;11.30;99.90
18091;DHT22;9172;49.948;9.208;2023-10-31T09:52:13;11.40;99.90
18091;DHT22;9172;49.948;9.208;2023-10-31T09:54:42;11.40;99.90
18091;DHT22;9172;49.948;9.208;2023-10-31T09:57:10;11.40;99.90
18091;DHT22;9172;49.948;9.208;2023-10-31T09:59:39;11.40;99.90
18091;DHT22;9172;49.948;9.208;2023-10-31T10:02:08;11.30;99.90
18091;DHT22;9172;49.948;9.208;2023-10-31T10:04:37;11.30;99.90
18091;DHT22;9172;49.948;9.208;2023-10-31T10:07:06;11.30;99.90
18091;DHT22;9172;49.948;9.208;2023-10-31T10:09:34;11.30;99.90
18091;DHT22;9172;49.948;9.208;2023-10-31T10:12:04;11.40;99.90
18091;DHT22;9172;49.948;9.208;2023-10-31T10:14:33;11.40;99.90
18091;DHT22;9172;49.948;9.208;2023-10-31T10:17:02;11.50;99.90
18091;DHT22;9172;49.948;9.208;2023-10-31T10:19:32;11.50;99.90
18091;DHT22;9172;49.948;9.208;2023-10-31T10:22:01;11.60;99.90
18091;DHT22;9172;49.948;9.208;2023-10-31T10:24:30;11.60;99.90
18091;DHT22;9172;49.948;9.208;2023-10-31T10:26:58;11.70;99.90
18091;DHT22;9172;49.948;9.208;2023-10-31T10:29:27;11.60;99.90
18091;DHT22;9172;49.948;9.208;2023-10-31T10:31:56;11.60;99.90
18091;DHT22;9172;49.948;9.208;2023-10-31T10:34:25;11.60;99.90
18091;DHT22;9172;49.948;9.208;2023-10-31T10:36:54;11.60;99.90
18091;DHT22;9172;49.948;9.208;2023-10-31T10:39:24;11.60;99.90
18091;DHT22;9172;49.948;9.208;2023-10-31T10:41:54;11.60;99.90
18091;DHT22;9172;49.948;9.208;2023-10-31T10:47:06;11.60;99.90
18091;DHT22;9172;49.948;9.208;2023-10-31T10:49:36;11.60;99.90
18091;DHT22;9172;49.948;9.208;2023-10-31T10:52:16;11.60;99.90
18091;DHT22;9172;49.948;9.208;2023-10-31T10:54:48;11.60;99.90
18091;DHT22;9172;49.948;9.208;2023-10-31T10:57:19;11.60;99.90
18091;DHT22;9172;49.948;9.208;2023-10-31T10:59:49;11.60;99.90
18091;DHT22;9172;49.948;9.208;2023-10-31T11:02:22;11.70;99.90
18091;DHT22;9172;49.948;9.208;2023-10-31T11:04:51;11.70;99.90
18091;DHT22;9172;49.948;9.208;2023-10-31T11:07:21;11.70;99.90
18091;DHT22;9172;49.948;9.208;2023-10-31T11:09:51;11.70;99.90
18091;DHT22;9172;49.948;9.208;2023-10-31T11:12:21;11.70;99.90
18091;DHT22;9172;49.948;9.208;2023-10-31T11:14:50;11.80;99.90
18091;DHT22;9172;49.948;9.208;2023-10-31T11:20:10;11.80;99.90
18091;DHT22;9172;49.948;9.208;2023-10-31T11:22:42;11.80;99.90
18091;DHT22;9172;49.948;9.208;2023-10-31T11:25:13;11.80;99.90
18091;DHT22;9172;49.948;9.208;2023-10-31T11:27:42;11.80;99.90
18091;DHT22;9172;49.948;9.208;2023-10-31T11:30:21;11.80;99.90
18091;DHT22;9172;49.948;9.208;2023-10-31T11:32:51;11.80;99.90
18091;DHT22;9172;49.948;9.208;2023-10-31T11:35:22;11.90;99.90
18091;DHT22;9172;49.948;9.208;2023-10-31T11:38:01;11.90;99.90
18091;DHT22;9172;49.948;9.208;2023-10-31T11:40:30;11.90;99.90
18091;DHT22;9172;49.948;9.208;2023-10-31T11:43:03;11.90;99.90
18091;DHT22;9172;49.948;9.208;2023-10-31T11:45:32;12.00;99.90
18091;DHT22;9172;49.948;9.208;2023-10-31T11:48:01;12.00;99.90
18091;DHT22;9172;49.948;9.208;2023-10-31T11:50:38;11.90;99.90
18091;DHT22;9172;49.948;9.208;2023-10-31T11:53:08;12.00;99.90
18091;DHT22;9172;49.948;9.208;2023-10-31T11:55:40;12.00;99.90
18091;DHT22;9172;49.948;9.208;2023-10-31T11:58:19;12.00;99.90
18091;DHT22;9172;49.948;9.208;2023-10-31T12:00:49;12.00;99.90
18091;DHT22;9172;49.948;9.208;2023-10-31T12:03:20;12.00;99.90
18091;DHT22;9172;49.948;9.208;2023-10-31T12:05:55;12.00;99.90
18091;DHT22;9172;49.948;9.208;2023-10-31T12:08:28;12.00;99.90
18091;DHT22;9172;49.948;9.208;2023-10-31T12:11:10;12.00;99.90
18091;DHT22;9172;49.948;9.208;2023-10-31T12:13:40;12.00;99.90
18091;DHT22;9172;49.948;9.208;2023-10-31T12:16:10;12.00;99.90
18091;DHT22;9172;49.948;9.208;2023-10-31T12:18:40;12.00;99.90
18091;DHT22;9172;49.948;9.208;2023-10-31T12:21:08;12.00;99.90
18091;DHT22;9172;49.948;9.208;2023-10-31T12:23:38;12.00;99.90
18091;DHT22;9172;49.948;9.208;2023-10-31T12:26:07;12.10;99.90
18091;DHT22;9172;49.948;9.208;2023-10-31T12:28:37;12.10;99.90
18091;DHT22;9172;49.948;9.208;2023-10-31T12:31:06;12.10;99.90
18091;DHT22;9172;49.948;9.208;2023-10-31T12:33:35;12.20;99.90
18091;DHT22;9172;49.948;9.208;2023-10-31T12:36:05;12.20;99.90
18091;DHT22;9172;49.948;9.208;2023-10-31T12:38:34;12.20;99.90
18091;DHT22;9172;49.948;9.208;2023-10-31T12:41:04;12.20;99.90
18091;DHT22;9172;49.948;9.208;2023-10-31T12:43:32;12.30;99.90
18091;DHT22;9172;49.948;9.208;2023-10-31T12:46:25;12.30;99.90
18091;DHT22;9172;49.948;9.208;2023-10-31T12:48:54;12.30;99.90
18091;DHT22;9172;49.948;9.208;2023-10-31T12:51:22;12.30;99.90
18091;DHT22;9172;49.948;9.208;2023-10-31T12:53:51;12.30;99.90
18091;DHT22;9172;49.948;9.208;2023-10-31T12:59:22;12.30;99.90
18091;DHT22;9172;49.948;9.208;2023-10-31T13:01:51;12.30;99.90
18091;DHT22;9172;49.948;9.208;2023-10-31T13:04:25;12.30;99.90
18091;DHT22;9172;49.948;9.208;2023-10-31T13:06:58;12.30;99.90
18091;DHT22;9172;49.948;9.208;2023-10-31T13:09:30;12.30;99.90
18091;DHT22;9172;49.948;9.208;2023-10-31T13:12:03;12.30;99.90
18091;DHT22;9172;49.948;9.208;2023-10-31T13:14:32;12.30;99.90
18091;DHT22;9172;49.948;9.208;2023-10-31T13:17:01;12.30;99.90
18091;DHT22;9172;49.948;9.208;2023-10-31T13:19:30;12.30;99.90
18091;DHT22;9172;49.948;9.208;2023-10-31T13:21:59;12.30;99.90
18091;DHT22;9172;49.948;9.208;2023-10-31T13:24:27;12.30;99.90
18091;DHT22;9172;49.948;9.208;2023-10-31T13:26:56;12.30;99.90
18091;DHT22;9172;49.948;9.208;2023-10-31T13:29:24;12.30;99.90
18091;DHT22;9172;49.948;9.208;2023-10-31T13:31:54;12.30;99.90
18091;DHT22;9172;49.948;9.208;2023-10-31T13:34:23;12.30;99.90
18091;DHT22;9172;49.948;9.208;2023-10-31T13:36:52;12.30;99.90
18091;DHT22;9172;49.948;9.208;2023-10-31T13:39:20;12.30;99.90
18091;DHT22;9172;49.948;9.208;2023-10-31T13:41:49;12.30;99.90
18091;DHT22;9172;49.948;9.208;2023-10-31T13:44:18;12.30;99.90
18091;DHT22;9172;49.948;9.208;2023-10-31T13:46:46;12.30;99.90
18091;DHT22;9172;49.948;9.208;2023-10-31T13:49:15;12.30;99.90
18091;DHT22;9172;49.948;9.208;2023-10-31T13:51:45;12.30;99.90
18091;DHT22;9172;49.948;9.208;2023-10-31T13:54:13;12.40;99.90
18091;DHT22;9172;49.948;9.208;2023-10-31T13:56:42;12.40;99.90
18091;DHT22;9172;49.948;9.208;2023-10-31T13:59:10;12.40;99.90
18091;DHT22;9172;49.948;9.208;2023-10-31T14:01:39;12.40;99.90
18091;DHT22;9172;49.948;9.208;2023-10-31T14:04:09;12.40;99.90
18091;DHT22;9172;49.948;9.208;2023-10-31T14:06:38;12.40;99.90
18091;DHT22;9172;49.948;9.208;2023-10-31T14:11:54;12.40;99.90
18091;DHT22;9172;49.948;9.208;2023-10-31T14:14:23;12.50;99.90
18091;DHT22;9172;49.948;9.208;2023-10-31T14:53:15;13.00;99.90
18091;DHT22;9172;49.948;9.208;2023-10-31T14:55:44;13.00;99.90
18091;DHT22;9172;49.948;9.208;2023-10-31T15:02:38;13.00;99.90
18091;DHT22;9172;49.948;9.208;2023-10-31T15:05:07;12.90;99.90
18091;DHT22;9172;49.948;9.208;2023-10-31T15:07:36;12.90;99.90
18091;DHT22;9172;49.948;9.208;2023-10-31T15:10:08;12.90;99.90
18091;DHT22;9172;49.948;9.208;2023-10-31T15:12:37;12.80;99.90
18091;DHT22;9172;49.948;9.208;2023-10-31T15:15:07;12.80;99.90
18091;DHT22;9172;49.948;9.208;2023-10-31T15:17:36;12.80;99.90
18091;DHT22;9172;49.948;9.208;2023-10-31T15:20:06;12.70;99.90
18091;DHT22;9172;49.948;9.208;2023-10-31T15:22:37;12.60;99.90
18091;DHT22;9172;49.948;9.208;2023-10-31T15:25:06;12.60;99.90
18091;DHT22;9172;49.948;9.208;2023-10-31T15:27:35;12.50;99.90
18091;DHT22;9172;49.948;9.208;2023-10-31T15:30:07;12.50;99.90
18091;DHT22;9172;49.948;9.208;2023-10-31T15:32:36;12.40;99.90
18091;DHT22;9172;49.948;9.208;2023-10-31T15:35:05;12.40;99.90
18091;DHT22;9172;49.948;9.208;2023-10-31T15:37:34;12.30;99.90
18091;DHT22;9172;49.948;9.208;2023-10-31T15:40:04;12.30;99.90
18091;DHT22;9172;49.948;9.208;2023-10-31T15:42:33;12.20;99.90
18091;DHT22;9172;49.948;9.208;2023-10-31T15:45:01;12.20;99.90
18091;DHT22;9172;49.948;9.208;2023-10-31T15:47:30;12.20;99.90
18091;DHT22;9172;49.948;9.208;2023-10-31T15:49:59;12.10;99.90
18091;DHT22;9172;49.948;9.208;2023-10-31T15:52:28;12.10;99.90
18091;DHT22;9172;49.948;9.208;2023-10-31T15:54:56;12.10;99.90
18091;DHT22;9172;49.948;9.208;2023-10-31T15:57:25;12.00;99.90
18091;DHT22;9172;49.948;9.208;2023-10-31T15:59:53;12.00;99.90
18091;DHT22;9172;49.948;9.208;2023-10-31T16:02:22;12.00;99.90
18091;DHT22;9172;49.948;9.208;2023-10-31T16:04:51;12.00;99.90
18091;DHT22;9172;49.948;9.208;2023-10-31T16:07:19;12.00;99.90
18091;DHT22;9172;49.948;9.208;2023-10-31T16:09:48;12.00;99.90
18091;DHT22;9172;49.948;9.208;2023-10-31T16:12:16;12.00;99.90
18091;DHT22;9172;49.948;9.208;2023-10-31T16:14:45;12.00;99.90
18091;DHT22;9172;49.948;9.208;2023-10-31T16:17:14;12.00;99.90
18091;DHT22;9172;49.948;9.208;2023-10-31T16:19:43;12.00;99.90
18091;DHT22;9172;49.948;9.208;2023-10-31T16:22:11;12.00;99.90
18091;DHT22;9172;49.948;9.208;2023-10-31T16:24:40;12.00;99.90
18091;DHT22;9172;49.948;9.208;2023-10-31T16:27:09;12.00;99.90
18091;DHT22;9172;49.948;9.208;2023-10-31T16:29:37;12.00;99.90
18091;DHT22;9172;49.948;9.208;2023-10-31T16:32:07;12.00;99.90
18091;DHT22;9172;49.948;9.208;2023-10-31T16:34:35;12.00;99.90
18091;DHT22;9172;49.948;9.208;2023-10-31T16:37:04;11.90;99.90
18091;DHT22;9172;49.948;9.208;2023-10-31T16:39:33;11.90;99.90
18091;DHT22;9172;49.948;9.208;2023-10-31T16:42:02;11.90;99.90
18091;DHT22;9172;49.948;9.208;2023-10-31T16:44:30;11.90;99.90
18091;DHT22;9172;49.948;9.208;2023-10-31T16:46:59;11.90;99.90
18091;DHT22;9172;49.948;9.208;2023-10-31T16:49:27;11.90;99.90
18091;DHT22;9172;49.948;9.208;2023-10-31T16:51:56;11.90;99.90
18091;DHT22;9172;49.948;9.208;2023-10-31T16:54:25;11.90;99.90
18091;DHT22;9172;49.948;9.208;2023-10-31T16:56:53;11.80;99.90
18091;DHT22;9172;49.948;9.208;2023-10-31T16:59:22;11.80;99.90
18091;DHT22;9172;49.948;9.208;2023-10-31T17:01:50;11.80;99.90
18091;DHT22;9172;49.948;9.208;2023-10-31T17:04:19;11.80;99.90
18091;DHT22;9172;49.948;9.208;2023-10-31T17:06:47;11.80;99.90
18091;DHT22;9172;49.948;9.208;2023-10-31T17:09:16;11.80;99.90
18091;DHT22;9172;49.948;9.208;2023-10-31T17:11:44;11.70;99.90
18091;DHT22;9172;49.948;9.208;2023-10-31T17:14:13;11.70;99.90
18091;DHT22;9172;49.948;9.208;2023-10-31T17:16:42;11.70;99.90
18091;DHT22;9172;49.948;9.208;2023-10-31T17:19:11;11.70;99.90
18091;DHT22;9172;49.948;9.208;2023-10-31T17:21:39;11.70;99.90
18091;DHT22;9172;49.948;9.208;2023-10-31T17:24:09;11.70;99.90
18091;DHT22;9172;49.948;9.208;2023-10-31T17:26:37;11.70;99.90
18091;DHT22;9172;49.948;9.208;2023-10-31T17:29:06;11.70;99.90
18091;DHT22;9172;49.948;9.208;2023-10-31T17:31:38;11.70;99.90
18091;DHT22;9172;49.948;9.208;2023-10-31T17:34:06;11.60;99.90
18091;DHT22;9172;49.948;9.208;2023-10-31T17:36:35;11.60;99.90
18091;DHT22;9172;49.948;9.208;2023-10-31T17:39:04;11.60;99.90
18091;DHT22;9172;49.948;9.208;2023-10-31T17:41:32;11.60;99.90
18091;DHT22;9172;49.948;9.208;2023-10-31T17:44:01;11.60;99.90
18091;DHT22;9172;49.948;9.208;2023-10-31T17:46:30;11.60;99.90
18091;DHT22;9172;49.948;9.208;2023-10-31T17:48:59;11.50;99.90
18091;DHT22;9172;49.948;9.208;2023-10-31T17:51:27;11.50;99.90
18091;DHT22;9172;49.948;9.208;2023-10-31T17:53:56;11.50;99.90
18091;DHT22;9172;49.948;9.208;2023-10-31T17:56:24;11.50;99.90
18091;DHT22;9172;49.948;9.208;2023-10-31T17:58:53;11.60;99.90
18091;DHT22;9172;49.948;9.208;2023-10-31T18:01:21;11.60;99.90
18091;DHT22;9172;49.948;9.208;2023-10-31T18:03:50;11.50;99.90
18091;DHT22;9172;49.948;9.208;2023-10-31T18:06:18;11.50;99.90
18091;DHT22;9172;49.948;9.208;2023-10-31T18:08:47;11.50;99.90
18091;DHT22;9172;49.948;9.208;2023-10-31T18:11:16;11.50;99.90
18091;DHT22;9172;49.948;9.208;2023-10-31T18:13:44;11.50;99.90
18091;DHT22;9172;49.948;9.208;2023-10-31T18:16:13;11.50;99.90
18091;DHT22;9172;49.948;9.208;2023-10-31T18:18:42;11.50;99.90
18091;DHT22;9172;49.948;9.208;2023-10-31T18:21:12;11.50;99.90
18091;DHT22;9172;49.948;9.208;2023-10-31T18:23:40;11.50;99.90
18091;DHT22;9172;49.948;9.208;2023-10-31T18:26:09;11.50;99.90
18091;DHT22;9172;49.948;9.208;2023-10-31T18:28:40;11.50;99.90
18091;DHT22;9172;49.948;9.208;2023-10-31T18:31:08;11.50;99.90
18091;DHT22;9172;49.948;9.208;2023-10-31T18:33:37;11.50;99.90
18091;DHT22;9172;49.948;9.208;2023-10-31T18:36:08;11.50;99.90
18091;DHT22;9172;49.948;9.208;2023-10-31T18:38:36;11.50;99.90
18091;DHT22;9172;49.948;9.208;2023-10-31T18:41:06;11.50;99.90
18091;DHT22;9172;49.948;9.208;2023-10-31T18:43:34;11.50;99.90
18091;DHT22;9172;49.948;9.208;2023-10-31T18:46:03;11.50;99.90
18091;DHT22;9172;49.948;9.208;2023-10-31T18:48:32;11.50;99.90
18091;DHT22;9172;49.948;9.208;2023-10-31T18:51:02;11.40;99.90
18091;DHT22;9172;49.948;9.208;2023-10-31T18:53:32;11.40;99.90
18091;DHT22;9172;49.948;9.208;2023-10-31T18:56:00;11.50;99.90
18091;DHT22;9172;49.948;9.208;2023-10-31T18:58:29;11.50;99.90
18091;DHT22;9172;49.948;9.208;2023-10-31T19:00:58;11.40;99.90
18091;DHT22;9172;49.948;9.208;2023-10-31T19:03:27;11.40;99.90
18091;DHT22;9172;49.948;9.208;2023-10-31T19:05:56;11.50;99.90
18091;DHT22;9172;49.948;9.208;2023-10-31T19:08:24;11.40;99.90
18091;DHT22;9172;49.948;9.208;2023-10-31T19:10:54;11.40;99.90
18091;DHT22;9172;49.948;9.208;2023-10-31T19:13:22;11.50;99.90
18091;DHT22;9172;49.948;9.208;2023-10-31T19:15:51;11.50;99.90
18091;DHT22;9172;49.948;9.208;2023-10-31T19:18:19;11.40;99.90
18091;DHT22;9172;49.948;9.208;2023-10-31T19:20:49;11.50;99.90
18091;DHT22;9172;49.948;9.208;2023-10-31T19:23:18;11.50;99.90
18091;DHT22;9172;49.948;9.208;2023-10-31T19:25:47;11.40;99.90
18091;DHT22;9172;49.948;9.208;2023-10-31T19:28:16;11.40;99.90
18091;DHT22;9172;49.948;9.208;2023-10-31T19:30:44;11.50;99.90
18091;DHT22;9172;49.948;9.208;2023-10-31T19:33:13;11.40;99.90
18091;DHT22;9172;49.948;9.208;2023-10-31T19:35:42;11.40;99.90
18091;DHT22;9172;49.948;9.208;2023-10-31T19:38:11;11.40;99.90
18091;DHT22;9172;49.948;9.208;2023-10-31T19:40:39;11.40;99.90
18091;DHT22;9172;49.948;9.208;2023-10-31T19:43:08;11.50;99.90
18091;DHT22;9172;49.948;9.208;2023-10-31T19:45:36;11.50;99.90
18091;DHT22;9172;49.948;9.208;2023-10-31T19:48:06;11.50;99.90
18091;DHT22;9172;49.948;9.208;2023-10-31T19:50:37;11.50;99.90
18091;DHT22;9172;49.948;9.208;2023-10-31T19:53:05;11.40;99.90
18091;DHT22;9172;49.948;9.208;2023-10-31T19:55:36;11.40;99.90
18091;DHT22;9172;49.948;9.208;2023-10-31T19:58:08;11.40;99.90
18091;DHT22;9172;49.948;9.208;2023-10-31T20:00:39;11.40;99.90
18091;DHT22;9172;49.948;9.208;2023-10-31T20:03:08;11.40;99.90
18091;DHT22;9172;49.948;9.208;2023-10-31T20:05:37;11.40;99.90
18091;DHT22;9172;49.948;9.208;2023-10-31T20:08:06;11.40;99.90
18091;DHT22;9172;49.948;9.208;2023-10-31T20:10:34;11.40;99.90
18091;DHT22;9172;49.948;9.208;2023-10-31T20:13:03;11.40;99.90
18091;DHT22;9172;49.948;9.208;2023-10-31T20:15:31;11.40;99.90
18091;DHT22;9172;49.948;9.208;2023-10-31T20:18:00;11.40;99.90
18091;DHT22;9172;49.948;9.208;2023-10-31T20:20:29;11.40;99.90
18091;DHT22;9172;49.948;9.208;2023-10-31T20:22:57;11.40;99.90
18091;DHT22;9172;49.948;9.208;2023-10-31T20:25:26;11.40;99.90
18091;DHT22;9172;49.948;9.208;2023-10-31T20:27:54;11.40;99.90
18091;DHT22;9172;49.948;9.208;2023-10-31T20:30:23;11.40;99.90
18091;DHT22;9172;49.948;9.208;2023-10-31T20:32:51;11.40;99.90
18091;DHT22;9172;49.948;9.208;2023-10-31T20:35:19;11.40;99.90
18091;DHT22;9172;49.948;9.208;2023-10-31T20:37:48;11.40;99.90